sensor_id;sensor_type;location;lat;lon;timestamp;P1;durP1;ratioP1;P2;durP2;ratioP2
85472;SDS011;75874;41.386;22.136;2024-03-08T00:00:42;4.07;;;1.60;;
85472;SDS011;75874;41.386;22.136;2024-03-08T00:03:08;3.83;;;1.70;;
85472;SDS011;75874;41.386;22.136;2024-03-08T00:05:35;2.75;;;2.05;;
85472;SDS011;75874;41.386;22.136;2024-03-08T00:08:05;4.70;;;2.10;;
85472;SDS011;75874;41.386;22.136;2024-03-08T00:10:34;3.05;;;1.67;;
85472;SDS011;75874;41.386;22.136;2024-03-08T00:13:00;2.45;;;1.42;;
85472;SDS011;75874;41.386;22.136;2024-03-08T00:15:29;3.42;;;1.88;;
85472;SDS011;75874;41.386;22.136;2024-03-08T00:17:56;3.60;;;1.60;;
85472;SDS011;75874;41.386;22.136;2024-03-08T00:20:21;2.50;;;1.70;;
85472;SDS011;75874;41.386;22.136;2024-03-08T00:22:48;2.53;;;1.85;;
85472;SDS011;75874;41.386;22.136;2024-03-08T00:25:14;4.65;;;1.80;;
85472;SDS011;75874;41.386;22.136;2024-03-08T00:27:41;3.05;;;1.52;;
85472;SDS011;75874;41.386;22.136;2024-03-08T00:30:07;2.13;;;1.50;;
85472;SDS011;75874;41.386;22.136;2024-03-08T00:32:33;2.63;;;1.55;;
85472;SDS011;75874;41.386;22.136;2024-03-08T00:34:59;2.85;;;1.38;;
85472;SDS011;75874;41.386;22.136;2024-03-08T00:37:25;2.80;;;1.75;;
85472;SDS011;75874;41.386;22.136;2024-03-08T00:39:51;2.45;;;1.42;;
85472;SDS011;75874;41.386;22.136;2024-03-08T00:42:18;2.40;;;1.45;;
85472;SDS011;75874;41.386;22.136;2024-03-08T00:44:45;4.15;;;1.50;;
85472;SDS011;75874;41.386;22.136;2024-03-08T00:47:14;3.45;;;1.90;;
85472;SDS011;75874;41.386;22.136;2024-03-08T00:49:41;4.55;;;1.65;;
85472;SDS011;75874;41.386;22.136;2024-03-08T00:52:07;6.40;;;1.67;;
85472;SDS011;75874;41.386;22.136;2024-03-08T00:54:33;1.48;;;1.25;;
85472;SDS011;75874;41.386;22.136;2024-03-08T00:57:01;2.78;;;1.60;;
85472;SDS011;75874;41.386;22.136;2024-03-08T00:59:28;3.35;;;1.52;;
85472;SDS011;75874;41.386;22.136;2024-03-08T01:01:54;2.40;;;1.33;;
85472;SDS011;75874;41.386;22.136;2024-03-08T01:04:20;1.88;;;1.30;;
85472;SDS011;75874;41.386;22.136;2024-03-08T01:06:48;3.97;;;1.65;;
85472;SDS011;75874;41.386;22.136;2024-03-08T01:09:13;2.03;;;1.50;;
85472;SDS011;75874;41.386;22.136;2024-03-08T01:11:39;3.33;;;2.05;;
85472;SDS011;75874;41.386;22.136;2024-03-08T01:14:05;3.72;;;1.90;;
85472;SDS011;75874;41.386;22.136;2024-03-08T01:16:31;4.85;;;1.88;;
85472;SDS011;75874;41.386;22.136;2024-03-08T01:18:58;2.83;;;1.55;;
85472;SDS011;75874;41.386;22.136;2024-03-08T01:21:24;2.88;;;1.40;;
85472;SDS011;75874;41.386;22.136;2024-03-08T01:23:49;2.22;;;1.48;;
85472;SDS011;75874;41.386;22.136;2024-03-08T01:26:15;2.67;;;1.75;;
85472;SDS011;75874;41.386;22.136;2024-03-08T01:28:41;6.40;;;1.65;;
85472;SDS011;75874;41.386;22.136;2024-03-08T01:31:07;4.63;;;1.70;;
85472;SDS011;75874;41.386;22.136;2024-03-08T01:33:32;5.10;;;1.98;;
85472;SDS011;75874;41.386;22.136;2024-03-08T01:35:58;2.50;;;1.70;;
85472;SDS011;75874;41.386;22.136;2024-03-08T01:38:24;5.03;;;1.75;;
85472;SDS011;75874;41.386;22.136;2024-03-08T01:40:50;2.53;;;1.60;;
85472;SDS011;75874;41.386;22.136;2024-03-08T01:43:25;3.30;;;1.67;;
85472;SDS011;75874;41.386;22.136;2024-03-08T01:45:54;3.20;;;1.63;;
85472;SDS011;75874;41.386;22.136;2024-03-08T01:48:24;2.58;;;1.80;;
85472;SDS011;75874;41.386;22.136;2024-03-08T01:50:50;2.90;;;1.73;;
85472;SDS011;75874;41.386;22.136;2024-03-08T01:53:19;3.05;;;1.52;;
85472;SDS011;75874;41.386;22.136;2024-03-08T01:55:46;4.93;;;1.85;;
85472;SDS011;75874;41.386;22.136;2024-03-08T01:58:13;3.90;;;1.80;;
85472;SDS011;75874;41.386;22.136;2024-03-08T02:00:42;3.92;;;1.73;;
85472;SDS011;75874;41.386;22.136;2024-03-08T02:03:11;2.33;;;1.52;;
85472;SDS011;75874;41.386;22.136;2024-03-08T02:05:37;5.47;;;2.10;;
85472;SDS011;75874;41.386;22.136;2024-03-08T02:08:05;2.20;;;1.70;;
85472;SDS011;75874;41.386;22.136;2024-03-08T02:10:32;3.08;;;1.95;;
85472;SDS011;75874;41.386;22.136;2024-03-08T02:13:01;4.95;;;1.70;;
85472;SDS011;75874;41.386;22.136;2024-03-08T02:18:30;3.47;;;2.00;;
85472;SDS011;75874;41.386;22.136;2024-03-08T02:21:00;4.38;;;1.92;;
85472;SDS011;75874;41.386;22.136;2024-03-08T02:23:27;4.75;;;2.15;;
85472;SDS011;75874;41.386;22.136;2024-03-08T02:28:48;3.00;;;1.90;;
85472;SDS011;75874;41.386;22.136;2024-03-08T02:31:14;2.63;;;1.60;;
85472;SDS011;75874;41.386;22.136;2024-03-08T02:33:40;6.55;;;2.22;;
85472;SDS011;75874;41.386;22.136;2024-03-08T02:36:06;3.85;;;2.25;;
85472;SDS011;75874;41.386;22.136;2024-03-08T02:38:31;2.17;;;1.60;;
85472;SDS011;75874;41.386;22.136;2024-03-08T02:40:58;2.25;;;1.50;;
85472;SDS011;75874;41.386;22.136;2024-03-08T02:43:24;2.40;;;1.70;;
85472;SDS011;75874;41.386;22.136;2024-03-08T02:45:49;6.28;;;2.10;;
85472;SDS011;75874;41.386;22.136;2024-03-08T02:48:18;2.70;;;1.55;;
85472;SDS011;75874;41.386;22.136;2024-03-08T02:50:44;3.70;;;2.10;;
85472;SDS011;75874;41.386;22.136;2024-03-08T02:53:10;4.90;;;2.30;;
85472;SDS011;75874;41.386;22.136;2024-03-08T02:55:40;5.60;;;1.90;;
85472;SDS011;75874;41.386;22.136;2024-03-08T02:58:06;5.47;;;2.22;;
85472;SDS011;75874;41.386;22.136;2024-03-08T03:00:35;8.55;;;2.20;;
85472;SDS011;75874;41.386;22.136;2024-03-08T03:03:01;6.40;;;1.88;;
85472;SDS011;75874;41.386;22.136;2024-03-08T03:05:28;2.58;;;1.70;;
85472;SDS011;75874;41.386;22.136;2024-03-08T03:07:57;5.38;;;2.20;;
85472;SDS011;75874;41.386;22.136;2024-03-08T03:10:23;5.05;;;1.88;;
85472;SDS011;75874;41.386;22.136;2024-03-08T03:12:49;4.90;;;2.15;;
85472;SDS011;75874;41.386;22.136;2024-03-08T03:15:15;9.82;;;2.80;;
85472;SDS011;75874;41.386;22.136;2024-03-08T03:17:47;5.13;;;2.95;;
85472;SDS011;75874;41.386;22.136;2024-03-08T03:20:16;3.75;;;2.10;;
85472;SDS011;75874;41.386;22.136;2024-03-08T03:22:48;3.38;;;2.00;;
85472;SDS011;75874;41.386;22.136;2024-03-08T03:25:20;6.20;;;2.40;;
85472;SDS011;75874;41.386;22.136;2024-03-08T03:27:50;3.42;;;2.40;;
85472;SDS011;75874;41.386;22.136;2024-03-08T03:30:17;4.00;;;2.17;;
85472;SDS011;75874;41.386;22.136;2024-03-08T03:32:47;5.43;;;3.00;;
85472;SDS011;75874;41.386;22.136;2024-03-08T03:35:19;4.85;;;2.85;;
85472;SDS011;75874;41.386;22.136;2024-03-08T03:37:45;7.32;;;3.20;;
85472;SDS011;75874;41.386;22.136;2024-03-08T03:40:29;5.72;;;2.83;;
85472;SDS011;75874;41.386;22.136;2024-03-08T03:42:55;6.40;;;2.45;;
85472;SDS011;75874;41.386;22.136;2024-03-08T03:45:21;4.47;;;2.40;;
85472;SDS011;75874;41.386;22.136;2024-03-08T03:47:47;3.97;;;2.50;;
85472;SDS011;75874;41.386;22.136;2024-03-08T03:50:13;6.63;;;2.72;;
85472;SDS011;75874;41.386;22.136;2024-03-08T03:52:38;5.47;;;3.17;;
85472;SDS011;75874;41.386;22.136;2024-03-08T03:55:04;6.88;;;2.88;;
85472;SDS011;75874;41.386;22.136;2024-03-08T03:57:30;7.65;;;3.20;;
85472;SDS011;75874;41.386;22.136;2024-03-08T03:59:56;4.88;;;2.42;;
85472;SDS011;75874;41.386;22.136;2024-03-08T04:02:25;4.32;;;2.80;;
85472;SDS011;75874;41.386;22.136;2024-03-08T04:04:52;5.00;;;3.08;;
85472;SDS011;75874;41.386;22.136;2024-03-08T04:07:20;7.32;;;3.20;;
85472;SDS011;75874;41.386;22.136;2024-03-08T04:09:45;5.68;;;3.42;;
85472;SDS011;75874;41.386;22.136;2024-03-08T04:12:11;7.38;;;3.10;;
85472;SDS011;75874;41.386;22.136;2024-03-08T04:14:38;3.42;;;2.70;;
85472;SDS011;75874;41.386;22.136;2024-03-08T04:17:06;6.25;;;2.70;;
85472;SDS011;75874;41.386;22.136;2024-03-08T04:19:33;5.03;;;2.72;;
85472;SDS011;75874;41.386;22.136;2024-03-08T04:22:00;4.93;;;2.72;;
85472;SDS011;75874;41.386;22.136;2024-03-08T04:24:26;5.85;;;3.05;;
85472;SDS011;75874;41.386;22.136;2024-03-08T04:26:52;6.22;;;2.97;;
85472;SDS011;75874;41.386;22.136;2024-03-08T04:29:18;4.35;;;2.35;;
85472;SDS011;75874;41.386;22.136;2024-03-08T04:31:44;4.55;;;2.30;;
85472;SDS011;75874;41.386;22.136;2024-03-08T04:34:10;5.03;;;2.58;;
85472;SDS011;75874;41.386;22.136;2024-03-08T04:36:36;5.10;;;2.15;;
85472;SDS011;75874;41.386;22.136;2024-03-08T04:39:02;4.78;;;2.35;;
85472;SDS011;75874;41.386;22.136;2024-03-08T04:41:27;4.82;;;2.65;;
85472;SDS011;75874;41.386;22.136;2024-03-08T04:43:55;4.40;;;2.20;;
85472;SDS011;75874;41.386;22.136;2024-03-08T04:46:23;4.95;;;3.10;;
85472;SDS011;75874;41.386;22.136;2024-03-08T04:48:49;5.35;;;2.83;;
85472;SDS011;75874;41.386;22.136;2024-03-08T04:51:14;5.28;;;2.50;;
85472;SDS011;75874;41.386;22.136;2024-03-08T04:53:41;4.22;;;2.40;;
85472;SDS011;75874;41.386;22.136;2024-03-08T04:56:07;5.95;;;2.67;;
85472;SDS011;75874;41.386;22.136;2024-03-08T04:58:35;4.15;;;2.35;;
85472;SDS011;75874;41.386;22.136;2024-03-08T05:01:01;4.82;;;2.50;;
85472;SDS011;75874;41.386;22.136;2024-03-08T05:03:27;4.78;;;2.60;;
85472;SDS011;75874;41.386;22.136;2024-03-08T05:05:53;8.70;;;3.22;;
85472;SDS011;75874;41.386;22.136;2024-03-08T05:08:18;4.50;;;2.47;;
85472;SDS011;75874;41.386;22.136;2024-03-08T05:10:44;3.95;;;2.30;;
85472;SDS011;75874;41.386;22.136;2024-03-08T05:13:11;5.05;;;2.70;;
85472;SDS011;75874;41.386;22.136;2024-03-08T05:15:38;5.78;;;2.55;;
85472;SDS011;75874;41.386;22.136;2024-03-08T05:18:04;8.60;;;2.90;;
85472;SDS011;75874;41.386;22.136;2024-03-08T05:20:30;4.38;;;2.88;;
85472;SDS011;75874;41.386;22.136;2024-03-08T05:22:56;8.82;;;2.63;;
85472;SDS011;75874;41.386;22.136;2024-03-08T05:25:25;4.82;;;2.78;;
85472;SDS011;75874;41.386;22.136;2024-03-08T05:27:51;5.30;;;3.50;;
85472;SDS011;75874;41.386;22.136;2024-03-08T05:30:17;5.80;;;2.83;;
85472;SDS011;75874;41.386;22.136;2024-03-08T05:32:44;7.60;;;3.63;;
85472;SDS011;75874;41.386;22.136;2024-03-08T05:35:12;6.63;;;4.05;;
85472;SDS011;75874;41.386;22.136;2024-03-08T05:37:41;4.97;;;2.50;;
85472;SDS011;75874;41.386;22.136;2024-03-08T05:40:10;6.45;;;3.55;;
85472;SDS011;75874;41.386;22.136;2024-03-08T05:42:35;5.97;;;3.75;;
85472;SDS011;75874;41.386;22.136;2024-03-08T05:45:02;5.63;;;3.50;;
85472;SDS011;75874;41.386;22.136;2024-03-08T05:47:28;8.93;;;3.40;;
85472;SDS011;75874;41.386;22.136;2024-03-08T05:49:54;6.10;;;3.83;;
85472;SDS011;75874;41.386;22.136;2024-03-08T05:52:20;8.25;;;4.13;;
85472;SDS011;75874;41.386;22.136;2024-03-08T05:54:45;5.65;;;3.72;;
85472;SDS011;75874;41.386;22.136;2024-03-08T05:57:12;8.30;;;4.45;;
85472;SDS011;75874;41.386;22.136;2024-03-08T05:59:42;5.90;;;3.60;;
85472;SDS011;75874;41.386;22.136;2024-03-08T06:02:07;6.65;;;4.35;;
85472;SDS011;75874;41.386;22.136;2024-03-08T06:04:33;8.35;;;4.18;;
85472;SDS011;75874;41.386;22.136;2024-03-08T06:06:59;9.38;;;4.60;;
85472;SDS011;75874;41.386;22.136;2024-03-08T06:09:24;8.65;;;4.65;;
85472;SDS011;75874;41.386;22.136;2024-03-08T06:11:51;10.18;;;4.82;;
85472;SDS011;75874;41.386;22.136;2024-03-08T06:14:19;9.68;;;5.15;;
85472;SDS011;75874;41.386;22.136;2024-03-08T06:16:45;8.50;;;4.30;;
85472;SDS011;75874;41.386;22.136;2024-03-08T06:19:12;7.60;;;5.35;;
85472;SDS011;75874;41.386;22.136;2024-03-08T06:21:38;7.20;;;4.18;;
85472;SDS011;75874;41.386;22.136;2024-03-08T06:24:04;7.07;;;4.68;;
85472;SDS011;75874;41.386;22.136;2024-03-08T06:26:30;7.65;;;4.45;;
85472;SDS011;75874;41.386;22.136;2024-03-08T06:28:56;13.32;;;5.40;;
85472;SDS011;75874;41.386;22.136;2024-03-08T06:31:22;9.82;;;4.93;;
85472;SDS011;75874;41.386;22.136;2024-03-08T06:33:48;9.50;;;4.55;;
85472;SDS011;75874;41.386;22.136;2024-03-08T06:36:19;6.18;;;3.90;;
85472;SDS011;75874;41.386;22.136;2024-03-08T06:38:49;11.70;;;4.28;;
85472;SDS011;75874;41.386;22.136;2024-03-08T06:43:43;10.55;;;5.13;;
85472;SDS011;75874;41.386;22.136;2024-03-08T06:46:08;9.50;;;4.95;;
85472;SDS011;75874;41.386;22.136;2024-03-08T06:48:35;8.77;;;5.05;;
85472;SDS011;75874;41.386;22.136;2024-03-08T06:51:02;9.05;;;4.30;;
85472;SDS011;75874;41.386;22.136;2024-03-08T06:53:29;7.95;;;4.68;;
85472;SDS011;75874;41.386;22.136;2024-03-08T06:55:55;8.40;;;4.50;;
85472;SDS011;75874;41.386;22.136;2024-03-08T06:58:21;7.07;;;4.28;;
85472;SDS011;75874;41.386;22.136;2024-03-08T07:00:46;5.43;;;3.53;;
85472;SDS011;75874;41.386;22.136;2024-03-08T07:03:17;7.32;;;4.10;;
85472;SDS011;75874;41.386;22.136;2024-03-08T07:05:43;8.10;;;4.88;;
85472;SDS011;75874;41.386;22.136;2024-03-08T07:08:09;9.65;;;4.35;;
85472;SDS011;75874;41.386;22.136;2024-03-08T07:10:34;8.35;;;4.07;;
85472;SDS011;75874;41.386;22.136;2024-03-08T07:13:02;6.60;;;4.50;;
85472;SDS011;75874;41.386;22.136;2024-03-08T07:15:28;7.45;;;4.22;;
85472;SDS011;75874;41.386;22.136;2024-03-08T07:17:54;8.45;;;4.18;;
85472;SDS011;75874;41.386;22.136;2024-03-08T07:20:20;5.90;;;3.92;;
85472;SDS011;75874;41.386;22.136;2024-03-08T07:22:47;8.70;;;3.55;;
85472;SDS011;75874;41.386;22.136;2024-03-08T07:25:13;4.47;;;3.28;;
85472;SDS011;75874;41.386;22.136;2024-03-08T07:27:54;6.15;;;3.58;;
85472;SDS011;75874;41.386;22.136;2024-03-08T07:30:25;7.88;;;3.97;;
85472;SDS011;75874;41.386;22.136;2024-03-08T07:33:11;7.95;;;3.08;;
85472;SDS011;75874;41.386;22.136;2024-03-08T07:35:38;5.45;;;3.00;;
85472;SDS011;75874;41.386;22.136;2024-03-08T07:38:05;6.40;;;3.63;;
85472;SDS011;75874;41.386;22.136;2024-03-08T07:40:36;8.35;;;4.15;;
85472;SDS011;75874;41.386;22.136;2024-03-08T07:43:10;7.10;;;3.65;;
85472;SDS011;75874;41.386;22.136;2024-03-08T07:45:37;4.15;;;3.08;;
85472;SDS011;75874;41.386;22.136;2024-03-08T07:48:03;5.18;;;3.85;;
85472;SDS011;75874;41.386;22.136;2024-03-08T07:50:38;7.18;;;3.60;;
85472;SDS011;75874;41.386;22.136;2024-03-08T07:53:05;5.80;;;3.35;;
85472;SDS011;75874;41.386;22.136;2024-03-08T07:55:35;7.40;;;3.53;;
85472;SDS011;75874;41.386;22.136;2024-03-08T07:58:01;5.43;;;3.42;;
85472;SDS011;75874;41.386;22.136;2024-03-08T08:00:31;6.65;;;3.50;;
85472;SDS011;75874;41.386;22.136;2024-03-08T08:02:57;7.53;;;3.58;;
85472;SDS011;75874;41.386;22.136;2024-03-08T08:05:23;8.00;;;3.45;;
85472;SDS011;75874;41.386;22.136;2024-03-08T08:07:48;8.57;;;4.35;;
85472;SDS011;75874;41.386;22.136;2024-03-08T08:10:15;8.38;;;3.55;;
85472;SDS011;75874;41.386;22.136;2024-03-08T08:12:48;5.80;;;3.58;;
85472;SDS011;75874;41.386;22.136;2024-03-08T08:15:14;6.28;;;3.90;;
85472;SDS011;75874;41.386;22.136;2024-03-08T08:17:41;10.43;;;4.65;;
85472;SDS011;75874;41.386;22.136;2024-03-08T08:20:10;6.57;;;3.97;;
85472;SDS011;75874;41.386;22.136;2024-03-08T08:22:42;8.77;;;4.03;;
85472;SDS011;75874;41.386;22.136;2024-03-08T08:25:12;7.07;;;4.05;;
85472;SDS011;75874;41.386;22.136;2024-03-08T08:27:38;6.68;;;3.38;;
85472;SDS011;75874;41.386;22.136;2024-03-08T08:30:10;9.02;;;3.80;;
85472;SDS011;75874;41.386;22.136;2024-03-08T08:32:40;5.95;;;3.65;;
85472;SDS011;75874;41.386;22.136;2024-03-08T08:35:07;6.85;;;3.35;;
85472;SDS011;75874;41.386;22.136;2024-03-08T08:37:34;7.18;;;3.47;;
85472;SDS011;75874;41.386;22.136;2024-03-08T08:40:02;7.93;;;3.83;;
85472;SDS011;75874;41.386;22.136;2024-03-08T08:42:34;6.70;;;4.00;;
85472;SDS011;75874;41.386;22.136;2024-03-08T08:44:59;5.53;;;3.65;;
85472;SDS011;75874;41.386;22.136;2024-03-08T08:47:29;6.20;;;3.70;;
85472;SDS011;75874;41.386;22.136;2024-03-08T08:49:54;5.32;;;3.42;;
85472;SDS011;75874;41.386;22.136;2024-03-08T08:52:20;11.63;;;3.78;;
85472;SDS011;75874;41.386;22.136;2024-03-08T08:54:46;6.00;;;3.65;;
85472;SDS011;75874;41.386;22.136;2024-03-08T08:57:11;8.68;;;3.90;;
85472;SDS011;75874;41.386;22.136;2024-03-08T08:59:37;5.47;;;2.97;;
85472;SDS011;75874;41.386;22.136;2024-03-08T09:02:07;6.07;;;3.97;;
85472;SDS011;75874;41.386;22.136;2024-03-08T09:04:36;5.63;;;3.70;;
85472;SDS011;75874;41.386;22.136;2024-03-08T09:07:01;6.45;;;3.88;;
85472;SDS011;75874;41.386;22.136;2024-03-08T09:09:27;6.72;;;3.78;;
85472;SDS011;75874;41.386;22.136;2024-03-08T09:11:55;7.07;;;4.05;;
85472;SDS011;75874;41.386;22.136;2024-03-08T09:14:21;5.03;;;3.33;;
85472;SDS011;75874;41.386;22.136;2024-03-08T09:16:46;7.13;;;3.90;;
85472;SDS011;75874;41.386;22.136;2024-03-08T09:19:15;4.72;;;2.78;;
85472;SDS011;75874;41.386;22.136;2024-03-08T09:21:42;5.40;;;2.92;;
85472;SDS011;75874;41.386;22.136;2024-03-08T09:24:08;8.55;;;3.00;;
85472;SDS011;75874;41.386;22.136;2024-03-08T09:26:33;5.63;;;3.13;;
85472;SDS011;75874;41.386;22.136;2024-03-08T09:28:59;5.63;;;2.50;;
85472;SDS011;75874;41.386;22.136;2024-03-08T09:31:25;5.85;;;3.35;;
85472;SDS011;75874;41.386;22.136;2024-03-08T09:33:51;6.70;;;3.72;;
85472;SDS011;75874;41.386;22.136;2024-03-08T09:36:17;6.65;;;3.85;;
85472;SDS011;75874;41.386;22.136;2024-03-08T09:38:43;7.10;;;3.78;;
85472;SDS011;75874;41.386;22.136;2024-03-08T09:41:09;5.90;;;3.55;;
85472;SDS011;75874;41.386;22.136;2024-03-08T09:43:36;7.60;;;2.85;;
85472;SDS011;75874;41.386;22.136;2024-03-08T09:46:02;5.50;;;3.25;;
85472;SDS011;75874;41.386;22.136;2024-03-08T09:48:31;4.70;;;3.15;;
85472;SDS011;75874;41.386;22.136;2024-03-08T09:50:58;4.05;;;3.00;;
85472;SDS011;75874;41.386;22.136;2024-03-08T09:53:24;4.15;;;2.60;;
85472;SDS011;75874;41.386;22.136;2024-03-08T09:55:49;3.75;;;2.47;;
85472;SDS011;75874;41.386;22.136;2024-03-08T09:58:15;5.22;;;2.72;;
85472;SDS011;75874;41.386;22.136;2024-03-08T10:00:53;5.97;;;2.58;;
85472;SDS011;75874;41.386;22.136;2024-03-08T10:03:22;5.05;;;3.00;;
85472;SDS011;75874;41.386;22.136;2024-03-08T10:05:51;5.05;;;2.60;;
85472;SDS011;75874;41.386;22.136;2024-03-08T10:08:17;4.20;;;3.05;;
85472;SDS011;75874;41.386;22.136;2024-03-08T10:10:42;5.25;;;2.58;;
85472;SDS011;75874;41.386;22.136;2024-03-08T10:13:09;8.20;;;2.97;;
85472;SDS011;75874;41.386;22.136;2024-03-08T10:15:37;9.40;;;3.72;;
85472;SDS011;75874;41.386;22.136;2024-03-08T10:18:05;4.90;;;3.28;;
85472;SDS011;75874;41.386;22.136;2024-03-08T10:20:32;6.40;;;2.72;;
85472;SDS011;75874;41.386;22.136;2024-03-08T10:23:01;4.85;;;3.00;;
85472;SDS011;75874;41.386;22.136;2024-03-08T10:25:32;4.15;;;2.42;;
85472;SDS011;75874;41.386;22.136;2024-03-08T10:27:59;4.78;;;2.70;;
85472;SDS011;75874;41.386;22.136;2024-03-08T10:30:24;4.80;;;2.30;;
85472;SDS011;75874;41.386;22.136;2024-03-08T10:32:50;4.40;;;2.72;;
85472;SDS011;75874;41.386;22.136;2024-03-08T10:35:17;2.40;;;1.98;;
85472;SDS011;75874;41.386;22.136;2024-03-08T10:37:49;3.15;;;2.33;;
85472;SDS011;75874;41.386;22.136;2024-03-08T10:40:28;6.13;;;3.28;;
85472;SDS011;75874;41.386;22.136;2024-03-08T10:42:55;3.53;;;2.90;;
85472;SDS011;75874;41.386;22.136;2024-03-08T10:45:38;5.55;;;2.67;;
85472;SDS011;75874;41.386;22.136;2024-03-08T10:50:48;4.20;;;2.75;;
85472;SDS011;75874;41.386;22.136;2024-03-08T10:53:17;4.90;;;2.45;;
85472;SDS011;75874;41.386;22.136;2024-03-08T10:55:46;3.45;;;2.33;;
85472;SDS011;75874;41.386;22.136;2024-03-08T10:58:13;4.88;;;2.00;;
85472;SDS011;75874;41.386;22.136;2024-03-08T11:00:41;4.97;;;2.30;;
85472;SDS011;75874;41.386;22.136;2024-03-08T11:06:15;3.90;;;2.20;;
85472;SDS011;75874;41.386;22.136;2024-03-08T11:08:43;3.38;;;2.28;;
85472;SDS011;75874;41.386;22.136;2024-03-08T11:11:27;3.13;;;2.60;;
85472;SDS011;75874;41.386;22.136;2024-03-08T11:13:57;4.88;;;2.20;;
85472;SDS011;75874;41.386;22.136;2024-03-08T11:18:58;3.78;;;3.08;;
85472;SDS011;75874;41.386;22.136;2024-03-08T11:21:30;3.97;;;2.70;;
85472;SDS011;75874;41.386;22.136;2024-03-08T11:24:08;3.75;;;2.72;;
85472;SDS011;75874;41.386;22.136;2024-03-08T11:32:06;4.40;;;3.10;;
85472;SDS011;75874;41.386;22.136;2024-03-08T11:34:32;4.03;;;2.92;;
85472;SDS011;75874;41.386;22.136;2024-03-08T11:39:49;3.53;;;2.80;;
85472;SDS011;75874;41.386;22.136;2024-03-08T11:42:18;4.28;;;2.97;;
85472;SDS011;75874;41.386;22.136;2024-03-08T11:44:47;3.10;;;2.47;;
85472;SDS011;75874;41.386;22.136;2024-03-08T11:47:13;3.00;;;2.47;;
85472;SDS011;75874;41.386;22.136;2024-03-08T11:49:39;5.32;;;3.20;;
85472;SDS011;75874;41.386;22.136;2024-03-08T11:52:15;3.28;;;2.38;;
85472;SDS011;75874;41.386;22.136;2024-03-08T11:54:43;3.08;;;2.17;;
85472;SDS011;75874;41.386;22.136;2024-03-08T11:57:20;4.65;;;2.60;;
85472;SDS011;75874;41.386;22.136;2024-03-08T11:59:55;2.92;;;2.53;;
85472;SDS011;75874;41.386;22.136;2024-03-08T12:02:35;3.20;;;2.53;;
85472;SDS011;75874;41.386;22.136;2024-03-08T12:07:55;4.72;;;2.47;;
85472;SDS011;75874;41.386;22.136;2024-03-08T12:10:24;4.75;;;2.83;;
85472;SDS011;75874;41.386;22.136;2024-03-08T12:12:52;3.42;;;2.60;;
85472;SDS011;75874;41.386;22.136;2024-03-08T12:15:35;3.80;;;2.60;;
85472;SDS011;75874;41.386;22.136;2024-03-08T12:18:01;4.25;;;3.20;;
85472;SDS011;75874;41.386;22.136;2024-03-08T12:20:30;3.55;;;2.30;;
85472;SDS011;75874;41.386;22.136;2024-03-08T12:22:56;6.45;;;2.85;;
85472;SDS011;75874;41.386;22.136;2024-03-08T12:25:26;3.60;;;2.72;;
85472;SDS011;75874;41.386;22.136;2024-03-08T12:30:26;4.15;;;2.95;;
85472;SDS011;75874;41.386;22.136;2024-03-08T12:32:53;3.78;;;2.20;;
85472;SDS011;75874;41.386;22.136;2024-03-08T12:35:22;3.50;;;2.20;;
85472;SDS011;75874;41.386;22.136;2024-03-08T12:37:53;3.65;;;2.75;;
85472;SDS011;75874;41.386;22.136;2024-03-08T12:42:57;3.97;;;2.28;;
85472;SDS011;75874;41.386;22.136;2024-03-08T12:45:23;5.80;;;2.10;;
85472;SDS011;75874;41.386;22.136;2024-03-08T12:47:58;2.80;;;2.10;;
85472;SDS011;75874;41.386;22.136;2024-03-08T12:50:24;3.83;;;2.13;;
85472;SDS011;75874;41.386;22.136;2024-03-08T12:52:50;3.70;;;2.28;;
85472;SDS011;75874;41.386;22.136;2024-03-08T12:55:18;6.50;;;2.20;;
85472;SDS011;75874;41.386;22.136;2024-03-08T12:57:44;4.05;;;1.92;;
85472;SDS011;75874;41.386;22.136;2024-03-08T13:00:10;4.43;;;2.30;;
85472;SDS011;75874;41.386;22.136;2024-03-08T13:02:47;2.95;;;1.90;;
85472;SDS011;75874;41.386;22.136;2024-03-08T13:05:12;2.80;;;2.47;;
85472;SDS011;75874;41.386;22.136;2024-03-08T13:07:39;3.40;;;2.00;;
85472;SDS011;75874;41.386;22.136;2024-03-08T13:10:14;4.38;;;2.50;;
85472;SDS011;75874;41.386;22.136;2024-03-08T13:12:43;3.67;;;2.05;;
85472;SDS011;75874;41.386;22.136;2024-03-08T13:15:09;3.58;;;2.17;;
85472;SDS011;75874;41.386;22.136;2024-03-08T13:17:45;5.25;;;2.05;;
85472;SDS011;75874;41.386;22.136;2024-03-08T13:20:13;4.75;;;2.35;;
85472;SDS011;75874;41.386;22.136;2024-03-08T13:22:43;6.55;;;2.70;;
85472;SDS011;75874;41.386;22.136;2024-03-08T13:25:09;3.80;;;2.28;;
85472;SDS011;75874;41.386;22.136;2024-03-08T13:27:41;7.40;;;2.47;;
85472;SDS011;75874;41.386;22.136;2024-03-08T13:30:11;2.90;;;1.90;;
85472;SDS011;75874;41.386;22.136;2024-03-08T13:32:43;2.70;;;1.90;;
85472;SDS011;75874;41.386;22.136;2024-03-08T13:35:10;2.58;;;2.03;;
85472;SDS011;75874;41.386;22.136;2024-03-08T13:37:40;3.88;;;2.53;;
85472;SDS011;75874;41.386;22.136;2024-03-08T13:40:06;4.75;;;2.47;;
85472;SDS011;75874;41.386;22.136;2024-03-08T13:42:42;3.40;;;2.13;;
85472;SDS011;75874;41.386;22.136;2024-03-08T13:45:08;2.75;;;1.83;;
85472;SDS011;75874;41.386;22.136;2024-03-08T13:47:38;12.07;;;6.68;;
85472;SDS011;75874;41.386;22.136;2024-03-08T13:50:05;5.18;;;2.63;;
85472;SDS011;75874;41.386;22.136;2024-03-08T13:52:38;2.85;;;2.22;;
85472;SDS011;75874;41.386;22.136;2024-03-08T13:55:05;3.35;;;2.85;;
85472;SDS011;75874;41.386;22.136;2024-03-08T13:57:32;8.15;;;5.53;;
85472;SDS011;75874;41.386;22.136;2024-03-08T13:59:58;5.28;;;3.22;;
85472;SDS011;75874;41.386;22.136;2024-03-08T14:02:25;3.22;;;2.25;;
85472;SDS011;75874;41.386;22.136;2024-03-08T14:04:54;4.57;;;1.98;;
85472;SDS011;75874;41.386;22.136;2024-03-08T14:07:20;2.85;;;2.03;;
85472;SDS011;75874;41.386;22.136;2024-03-08T14:09:48;3.33;;;2.15;;
85472;SDS011;75874;41.386;22.136;2024-03-08T14:12:18;3.00;;;2.05;;
85472;SDS011;75874;41.386;22.136;2024-03-08T14:14:44;4.30;;;2.00;;
85472;SDS011;75874;41.386;22.136;2024-03-08T14:17:09;2.65;;;1.70;;
85472;SDS011;75874;41.386;22.136;2024-03-08T14:19:36;2.47;;;2.00;;
85472;SDS011;75874;41.386;22.136;2024-03-08T14:22:04;3.92;;;2.03;;
85472;SDS011;75874;41.386;22.136;2024-03-08T14:24:30;4.18;;;2.72;;
85472;SDS011;75874;41.386;22.136;2024-03-08T14:26:59;3.45;;;2.00;;
85472;SDS011;75874;41.386;22.136;2024-03-08T14:29:25;3.28;;;2.33;;
85472;SDS011;75874;41.386;22.136;2024-03-08T14:31:54;5.45;;;2.72;;
85472;SDS011;75874;41.386;22.136;2024-03-08T14:34:27;2.90;;;2.20;;
85472;SDS011;75874;41.386;22.136;2024-03-08T14:36:55;4.05;;;2.55;;
85472;SDS011;75874;41.386;22.136;2024-03-08T14:39:21;7.85;;;5.50;;
85472;SDS011;75874;41.386;22.136;2024-03-08T14:41:57;5.05;;;4.13;;
85472;SDS011;75874;41.386;22.136;2024-03-08T14:44:23;6.20;;;3.90;;
85472;SDS011;75874;41.386;22.136;2024-03-08T14:46:54;4.40;;;3.92;;
85472;SDS011;75874;41.386;22.136;2024-03-08T14:52:09;4.22;;;3.83;;
85472;SDS011;75874;41.386;22.136;2024-03-08T14:54:55;4.47;;;4.05;;
85472;SDS011;75874;41.386;22.136;2024-03-08T14:57:24;3.85;;;3.42;;
85472;SDS011;75874;41.386;22.136;2024-03-08T14:59:49;7.57;;;4.30;;
85472;SDS011;75874;41.386;22.136;2024-03-08T15:02:15;5.97;;;4.32;;
85472;SDS011;75874;41.386;22.136;2024-03-08T15:07:08;4.88;;;3.80;;
85472;SDS011;75874;41.386;22.136;2024-03-08T15:09:35;5.97;;;4.30;;
85472;SDS011;75874;41.386;22.136;2024-03-08T15:12:08;6.00;;;3.80;;
85472;SDS011;75874;41.386;22.136;2024-03-08T15:14:38;4.45;;;4.00;;